Time;durP1;ratioP1;P1;durP2;ratioP2;P2;SDS_P1;SDS_P2;PMS_P1;PMS_P2;Temp;Humidity;BMP_temperature;BMP_pressure;BME280_temperature;BME280_humidity;BME280_pressure;Samples;Min_cycle;Max_cycle;Signal;HPM_P1;HPM_P2
2022/06/17 00:00:42;;;;;;;4.57;4.10;;;14.50;99.90;;;;;;4934574;29;20274;-44
2022/06/17 00:03:10;;;;;;;6.50;4.03;;;14.40;99.90;;;;;;4933599;28;20723;-46
2022/06/17 00:05:39;;;;;;;5.97;4.20;;;14.40;99.90;;;;;;4934942;29;20289;-45
2022/06/17 00:08:13;;;;;;;4.97;4.03;;;14.40;99.90;;;;;;4935329;29;20224;-45
2022/06/17 00:10:42;;;;;;;6.67;3.90;;;14.30;99.90;;;;;;4941111;29;20239;-45
2022/06/17 00:13:18;;;;;;;5.43;4.47;;;14.30;99.90;;;;;;4933649;29;20227;-45
2022/06/17 00:15:47;;;;;;;4.07;3.67;;;14.30;99.90;;;;;;4916156;29;20262;-45
2022/06/17 00:18:16;;;;;;;7.70;4.40;;;14.30;99.90;;;;;;4933844;29;20696;-44
2022/06/17 00:20:47;;;;;;;7.13;4.57;;;14.30;99.90;;;;;;4934846;29;20224;-45
2022/06/17 00:23:18;;;;;;;5.70;4.80;;;14.20;99.90;;;;;;4934768;29;20231;-44
2022/06/17 00:25:47;;;;;;;8.27;4.70;;;14.20;99.90;;;;;;4916205;29;20232;-44
2022/06/17 00:28:19;;;;;;;7.33;4.83;;;14.10;99.90;;;;;;4939916;28;20279;-46
2022/06/17 00:30:48;;;;;;;4.90;4.40;;;14.20;99.90;;;;;;4928598;29;20224;-44
2022/06/17 00:33:18;;;;;;;4.47;4.07;;;14.10;99.90;;;;;;4927282;29;20287;-45
2022/06/17 00:35:50;;;;;;;5.23;4.40;;;14.10;99.90;;;;;;4938158;29;20238;-45
2022/06/17 00:38:22;;;;;;;4.60;4.20;;;14.10;99.90;;;;;;4938306;29;20592;-45
2022/06/17 00:40:52;;;;;;;4.70;4.07;;;14.10;99.90;;;;;;4937840;29;20231;-46
2022/06/17 00:43:29;;;;;;;5.03;4.10;;;14.20;99.90;;;;;;4939078;29;20707;-45
2022/06/17 00:46:05;;;;;;;5.80;3.83;;;14.20;99.90;;;;;;4937929;29;20703;-44
2022/06/17 00:48:38;;;;;;;4.40;4.00;;;14.10;99.90;;;;;;4938411;29;20263;-44
2022/06/17 00:51:14;;;;;;;5.73;4.20;;;14.10;99.90;;;;;;4937977;29;20242;-48
2022/06/17 00:53:49;;;;;;;6.27;4.87;;;14.00;99.90;;;;;;4930405;29;20231;-45
2022/06/17 00:56:21;;;;;;;6.27;4.47;;;14.00;99.90;;;;;;4938047;29;20234;-45
2022/06/17 00:59:09;;;;;;;5.20;4.70;;;14.00;99.90;;;;;;4944471;29;20228;-45
2022/06/17 01:01:43;;;;;;;5.97;4.57;;;13.90;99.90;;;;;;4936794;29;20239;-45
2022/06/17 01:04:13;;;;;;;8.23;4.37;;;13.80;99.90;;;;;;4937631;29;20247;-44
2022/06/17 01:06:47;;;;;;;5.30;4.70;;;13.90;99.90;;;;;;4920806;29;20235;-44
2022/06/17 01:12:11;;;;;;;6.00;4.80;;;13.90;99.90;;;;;;4920716;29;20220;-44
2022/06/17 01:14:43;;;;;;;6.83;4.83;;;13.80;99.90;;;;;;4928145;29;20239;-45
2022/06/17 01:17:15;;;;;;;6.03;4.70;;;13.80;99.90;;;;;;4920420;29;20258;-44
2022/06/17 01:19:52;;;;;;;6.50;5.00;;;13.80;99.90;;;;;;4920879;29;20766;-44
2022/06/17 01:22:38;;;;;;;6.43;4.60;;;13.70;99.90;;;;;;4931377;29;20671;-45
2022/06/17 01:25:10;;;;;;;6.37;5.43;;;13.70;99.90;;;;;;4923815;29;20230;-44
2022/06/17 01:27:41;;;;;;;6.77;5.23;;;13.60;99.90;;;;;;4921330;29;20285;-44
2022/06/17 01:30:12;;;;;;;5.43;4.73;;;13.60;99.90;;;;;;4920889;29;20719;-43
2022/06/17 01:32:46;;;;;;;9.10;5.13;;;13.60;99.90;;;;;;4934912;29;20230;-45
2022/06/17 01:35:14;;;;;;;7.33;5.03;;;13.60;99.90;;;;;;4937317;29;20314;-44
2022/06/17 01:37:45;;;;;;;5.93;5.43;;;13.70;99.90;;;;;;4935914;29;20235;-44
2022/06/17 01:40:14;;;;;;;5.27;4.70;;;13.70;99.90;;;;;;4932254;29;20230;-44
2022/06/17 01:42:43;;;;;;;5.87;5.00;;;13.70;99.90;;;;;;4935973;29;20278;-44
2022/06/17 01:45:13;;;;;;;6.40;5.17;;;13.70;99.90;;;;;;4937042;29;20255;-45
2022/06/17 01:47:45;;;;;;;6.87;5.60;;;13.70;99.90;;;;;;4920038;29;20236;-44
2022/06/17 01:50:18;;;;;;;5.80;4.80;;;13.70;99.90;;;;;;4919462;29;20723;-45
2022/06/17 01:52:56;;;;;;;6.37;5.73;;;13.60;99.90;;;;;;4937965;29;20354;-44
2022/06/17 01:55:28;;;;;;;8.23;5.70;;;13.50;99.90;;;;;;4933290;29;20235;-44
2022/06/17 01:58:01;;;;;;;7.20;5.80;;;13.50;99.90;;;;;;4923000;29;20241;-44
2022/06/17 02:00:34;;;;;;;6.13;5.53;;;13.40;99.90;;;;;;4918882;29;20238;-45
2022/06/17 02:03:08;;;;;;;6.80;5.70;;;13.40;99.90;;;;;;4922924;29;20324;-45
2022/06/17 02:05:39;;;;;;;6.33;5.57;;;13.40;99.90;;;;;;4916352;29;20236;-45
2022/06/17 02:08:10;;;;;;;6.53;5.93;;;13.40;99.90;;;;;;4916670;29;20299;-46
2022/06/17 02:10:40;;;;;;;6.50;5.50;;;13.40;99.90;;;;;;4917315;29;20268;-45
2022/06/17 02:13:11;;;;;;;6.30;5.67;;;13.40;99.90;;;;;;4915282;29;20221;-46
2022/06/17 02:15:59;;;;;;;6.80;6.00;;;13.30;99.90;;;;;;4899830;29;20251;-45
2022/06/17 02:18:52;;;;;;;5.90;5.17;;;13.30;99.90;;;;;;4897649;29;20296;-45
2022/06/17 02:21:27;;;;;;;6.83;6.13;;;13.20;99.90;;;;;;4906794;29;20291;-45
2022/06/17 02:23:57;;;;;;;6.47;5.60;;;13.30;99.90;;;;;;4916122;29;20227;-45
2022/06/17 02:26:26;;;;;;;5.50;4.97;;;13.30;99.90;;;;;;4917520;29;20236;-45
2022/06/17 02:28:54;;;;;;;6.27;5.40;;;13.30;99.90;;;;;;4915924;29;20688;-44
2022/06/17 02:31:23;;;;;;;7.27;6.10;;;13.40;99.90;;;;;;4915398;29;20259;-44
2022/06/17 02:33:55;;;;;;;6.60;6.00;;;13.40;99.90;;;;;;4916027;29;20239;-45
2022/06/17 02:36:28;;;;;;;7.07;6.07;;;13.30;99.90;;;;;;4917156;29;20231;-44
2022/06/17 02:38:59;;;;;;;6.40;5.80;;;13.30;99.90;;;;;;4917303;29;20727;-44
2022/06/17 02:41:29;;;;;;;6.67;5.83;;;13.30;99.90;;;;;;4916506;29;20292;-45
2022/06/17 02:44:01;;;;;;;7.90;6.80;;;13.30;99.90;;;;;;4916780;29;20632;-45
2022/06/17 02:46:34;;;;;;;9.33;6.50;;;13.20;99.90;;;;;;4915883;29;20763;-45
2022/06/17 02:49:09;;;;;;;6.87;6.20;;;13.10;99.90;;;;;;4915810;29;20236;-44
2022/06/17 02:51:40;;;;;;;6.70;5.30;;;13.10;99.90;;;;;;4913683;29;20224;-44
2022/06/17 02:54:16;;;;;;;6.57;5.90;;;13.10;99.90;;;;;;4915607;29;20234;-44
2022/06/17 02:56:49;;;;;;;6.77;5.57;;;13.10;99.90;;;;;;4918030;29;20667;-44
2022/06/17 02:59:23;;;;;;;8.67;6.50;;;13.20;99.90;;;;;;4918198;29;20612;-44
2022/06/17 03:01:55;;;;;;;7.73;5.73;;;13.10;99.90;;;;;;4913139;29;20231;-46
2022/06/17 03:04:37;;;;;;;6.47;5.83;;;13.10;99.90;;;;;;4915281;29;20247;-45
2022/06/17 03:07:14;;;;;;;6.30;5.63;;;13.00;99.90;;;;;;4921752;29;20234;-45
2022/06/17 03:09:44;;;;;;;6.87;5.67;;;13.10;99.90;;;;;;4925063;29;20622;-45
2022/06/17 03:12:17;;;;;;;6.80;6.10;;;13.10;99.90;;;;;;4922262;29;20230;-46
2022/06/17 03:14:49;;;;;;;8.87;6.37;;;13.00;99.90;;;;;;4919988;29;20235;-46
2022/06/17 03:17:23;;;;;;;9.40;6.97;;;13.00;99.90;;;;;;4923887;29;20733;-45
2022/06/17 03:19:55;;;;;;;7.80;7.10;;;13.10;99.90;;;;;;4924281;29;20282;-44
2022/06/17 03:22:26;;;;;;;7.70;6.90;;;13.00;99.90;;;;;;4919219;29;20228;-44
2022/06/17 03:25:05;;;;;;;7.50;6.90;;;13.10;99.90;;;;;;4923186;29;20688;-45
2022/06/17 03:27:49;;;;;;;7.53;6.80;;;13.10;99.90;;;;;;4920672;29;20702;-45
2022/06/17 03:30:23;;;;;;;8.07;7.27;;;13.20;99.90;;;;;;4924020;29;20230;-45
2022/06/17 03:32:59;;;;;;;8.80;7.27;;;13.20;99.90;;;;;;4915315;29;20654;-45
2022/06/17 03:35:31;;;;;;;7.90;7.20;;;13.30;99.90;;;;;;4916456;29;20239;-46
2022/06/17 03:38:05;;;;;;;8.43;7.27;;;13.30;99.90;;;;;;4915128;29;20242;-45
2022/06/17 03:40:40;;;;;;;9.90;7.50;;;13.40;99.90;;;;;;4930759;29;20274;-45
2022/06/17 03:43:12;;;;;;;8.10;7.30;;;13.60;99.90;;;;;;4911515;29;20715;-45
2022/06/17 03:45:49;;;;;;;7.70;6.93;;;13.70;99.90;;;;;;4896091;29;20260;-46
2022/06/17 03:48:29;;;;;;;10.47;7.43;;;13.70;99.90;;;;;;4909741;29;20990;-45
2022/06/17 03:50:57;;;;;;;9.73;8.10;;;13.80;99.90;;;;;;4914994;29;20235;-45
2022/06/17 03:53:31;;;;;;;9.20;6.80;;;13.90;99.90;;;;;;4913752;29;20217;-45
2022/06/17 03:56:06;;;;;;;8.53;7.43;;;14.00;99.90;;;;;;4915150;29;20232;-44
2022/06/17 03:58:39;;;;;;;8.33;7.43;;;14.00;99.90;;;;;;4906455;29;20610;-44
2022/06/17 04:01:15;;;;;;;9.50;7.67;;;14.10;99.90;;;;;;4915560;29;20224;-46
2022/06/17 04:03:51;;;;;;;11.00;8.30;;;14.30;99.90;;;;;;4917040;29;20326;-46
2022/06/17 04:06:23;;;;;;;10.00;7.93;;;14.30;99.90;;;;;;4918695;29;20224;-45
2022/06/17 04:08:55;;;;;;;10.20;7.90;;;14.30;99.90;;;;;;4918664;29;20232;-44
2022/06/17 04:11:29;;;;;;;9.57;8.13;;;14.50;99.90;;;;;;4916270;29;20255;-44
2022/06/17 04:14:01;;;;;;;9.90;8.07;;;14.50;99.90;;;;;;4918066;29;20236;-44
2022/06/17 04:16:38;;;;;;;8.87;7.97;;;14.70;99.90;;;;;;4918423;29;20635;-46
2022/06/17 04:19:15;;;;;;;9.90;8.90;;;14.60;99.90;;;;;;4922672;29;20697;-45
2022/06/17 04:21:50;;;;;;;12.37;8.77;;;14.70;99.90;;;;;;4916992;29;20285;-46
2022/06/17 04:24:23;;;;;;;8.63;7.70;;;14.90;99.90;;;;;;4918244;29;20236;-45
2022/06/17 04:27:13;;;;;;;9.40;7.80;;;14.90;99.90;;;;;;4917157;29;20263;-45
2022/06/17 04:29:45;;;;;;;9.40;8.43;;;14.90;99.90;;;;;;4926106;29;20233;-46
2022/06/17 04:32:20;;;;;;;10.20;8.80;;;14.90;99.90;;;;;;4915228;29;20789;-45
2022/06/17 04:34:50;;;;;;;10.27;8.13;;;15.10;99.90;;;;;;4918129;29;20227;-44
2022/06/17 04:37:20;;;;;;;12.33;9.23;;;15.10;99.90;;;;;;4918144;29;20229;-45
2022/06/17 04:40:19;;;;;;;8.93;8.03;;;15.20;99.90;;;;;;4919200;29;20236;-45
2022/06/17 04:43:21;;;;;;;9.17;7.60;;;15.30;99.90;;;;;;4916873;29;20261;-46
2022/06/17 04:45:55;;;;;;;11.03;8.43;;;15.50;99.90;;;;;;4911152;29;20236;-45
2022/06/17 04:48:24;;;;;;;8.90;8.00;;;15.50;99.90;;;;;;4922825;29;20238;-45
2022/06/17 04:50:53;;;;;;;9.97;8.90;;;15.60;99.90;;;;;;4917931;29;20230;-45
2022/06/17 04:53:23;;;;;;;9.97;9.00;;;15.70;99.90;;;;;;4916544;29;20237;-48
2022/06/17 04:56:28;;;;;;;9.40;8.27;;;15.80;99.90;;;;;;4908552;29;20633;-45
2022/06/17 04:59:31;;;;;;;9.87;8.57;;;15.90;99.90;;;;;;4916769;29;20240;-45
2022/06/17 05:02:00;;;;;;;8.90;7.83;;;16.10;99.90;;;;;;4920219;29;20224;-45
2022/06/17 05:04:38;;;;;;;9.67;7.67;;;16.30;99.90;;;;;;4917510;29;20739;-45
2022/06/17 05:07:06;;;;;;;8.80;7.90;;;16.40;99.90;;;;;;4917671;29;20233;-46
2022/06/17 05:09:42;;;;;;;8.00;7.20;;;16.60;99.90;;;;;;4919951;29;20353;-45
2022/06/17 05:12:19;;;;;;;9.03;7.97;;;16.80;99.90;;;;;;4921005;29;20251;-46
2022/06/17 05:14:52;;;;;;;9.13;7.67;;;16.90;99.90;;;;;;4909401;29;20245;-45
2022/06/17 05:17:21;;;;;;;8.00;7.30;;;17.10;99.90;;;;;;4919661;29;20235;-46
2022/06/17 05:19:51;;;;;;;8.77;7.90;;;17.30;99.90;;;;;;4917473;29;20253;-46
2022/06/17 05:22:24;;;;;;;9.30;7.47;;;17.40;99.90;;;;;;4921827;29;20227;-45
2022/06/17 05:24:54;;;;;;;8.90;7.67;;;17.60;99.90;;;;;;4916982;29;20315;-46
2022/06/17 05:27:22;;;;;;;10.13;7.13;;;17.70;99.90;;;;;;4916308;29;20284;-45
2022/06/17 05:29:52;;;;;;;10.13;8.37;;;17.80;99.90;;;;;;4917089;29;20697;-46
2022/06/17 05:32:22;;;;;;;8.73;7.50;;;18.00;99.90;;;;;;4921090;29;20327;-46
2022/06/17 05:34:50;;;;;;;7.77;7.03;;;18.10;99.90;;;;;;4916909;29;20217;-46
2022/06/17 05:37:19;;;;;;;8.43;7.23;;;18.10;99.90;;;;;;4917313;29;20234;-46
2022/06/17 05:39:50;;;;;;;10.70;7.50;;;18.20;99.90;;;;;;4918661;29;20237;-46
2022/06/17 05:42:18;;;;;;;8.33;7.40;;;18.30;99.90;;;;;;4916958;29;20303;-44
2022/06/17 05:44:47;;;;;;;9.37;7.03;;;18.50;99.90;;;;;;4925908;29;20280;-46
2022/06/17 05:47:49;;;;;;;7.73;6.90;;;18.60;99.90;;;;;;4905472;29;20749;-45
2022/06/17 05:50:40;;;;;;;8.53;6.90;;;18.80;99.90;;;;;;4914791;29;20702;-45
2022/06/17 05:53:35;;;;;;;8.00;6.27;;;19.10;99.90;;;;;;4922335;29;20234;-46
2022/06/17 05:56:26;;;;;;;8.10;6.67;;;19.40;99.90;;;;;;4914277;29;20229;-47
2022/06/17 05:58:54;;;;;;;7.73;6.00;;;19.70;99.90;;;;;;4916528;29;20237;-46
2022/06/17 06:01:22;;;;;;;7.67;6.30;;;19.90;99.90;;;;;;4916078;29;20258;-47
2022/06/17 06:03:52;;;;;;;8.30;6.47;;;20.20;99.90;;;;;;4920910;29;20247;-47
2022/06/17 06:06:20;;;;;;;8.00;6.60;;;20.30;99.90;;;;;;4916227;29;20607;-46
2022/06/17 06:08:52;;;;;;;6.90;6.03;;;20.40;99.90;;;;;;4916276;29;20255;-47
2022/06/17 06:11:21;;;;;;;8.83;5.80;;;20.60;99.90;;;;;;4914372;29;20693;-46
2022/06/17 06:13:49;;;;;;;9.40;6.07;;;20.90;99.90;;;;;;4917291;29;20224;-46
2022/06/17 06:16:17;;;;;;;10.13;6.37;;;21.10;99.90;;;;;;4915986;29;20232;-47
2022/06/17 06:18:52;;;;;;;6.30;5.70;;;21.30;99.90;;;;;;4918674;29;20226;-46
2022/06/17 06:21:23;;;;;;;8.53;5.87;;;21.30;99.90;;;;;;4917607;29;20720;-46
2022/06/17 06:23:54;;;;;;;7.30;5.30;;;21.60;99.90;;;;;;4909859;29;20255;-45
2022/06/17 06:26:28;;;;;;;8.63;5.43;;;21.80;99.90;;;;;;4912605;29;20250;-48
2022/06/17 06:29:15;;;;;;;7.77;5.67;;;22.10;99.90;;;;;;4915895;29;20238;-46
2022/06/17 06:31:45;;;;;;;6.93;5.93;;;22.40;99.90;;;;;;4913081;29;20239;-46
2022/06/17 06:34:53;;;;;;;8.43;5.27;;;22.40;99.90;;;;;;4896339;29;21102;-46
2022/06/17 06:37:23;;;;;;;7.63;4.90;;;22.50;99.90;;;;;;4900368;29;20949;-46
2022/06/17 06:39:51;;;;;;;7.90;5.30;;;22.50;99.90;;;;;;4901053;29;20228;-45
2022/06/17 06:42:19;;;;;;;9.90;5.17;;;22.60;99.90;;;;;;4900538;29;20690;-46
2022/06/17 06:45:07;;;;;;;8.50;4.87;;;22.60;99.90;;;;;;4899215;29;20374;-47
2022/06/17 06:47:41;;;;;;;6.80;4.47;;;22.70;99.90;;;;;;4917773;29;20239;-45
2022/06/17 06:50:27;;;;;;;7.27;5.17;;;22.90;99.90;;;;;;4905060;29;20248;-46
2022/06/17 06:52:55;;;;;;;6.00;4.57;;;23.10;99.90;;;;;;4924050;29;20268;-46
2022/06/17 06:55:23;;;;;;;6.57;4.57;;;23.50;99.90;;;;;;4899719;29;20749;-47
2022/06/17 06:57:54;;;;;;;6.87;4.63;;;23.60;99.90;;;;;;4903369;29;20236;-46
2022/06/17 07:00:25;;;;;;;6.40;4.60;;;23.60;99.90;;;;;;4918745;29;20320;-46
2022/06/17 07:02:54;;;;;;;7.33;4.63;;;23.70;99.90;;;;;;4905423;29;20296;-47
2022/06/17 07:05:24;;;;;;;8.37;5.50;;;23.80;99.90;;;;;;4927005;29;20243;-49
2022/06/17 07:07:54;;;;;;;5.67;4.70;;;23.90;99.90;;;;;;4911719;29;20238;-46
2022/06/17 07:10:26;;;;;;;7.80;4.70;;;23.90;99.90;;;;;;4931215;29;20270;-46
2022/06/17 07:12:54;;;;;;;5.70;4.63;;;23.80;99.90;;;;;;4926362;29;20258;-46
2022/06/17 07:15:25;;;;;;;8.40;4.17;;;23.90;99.90;;;;;;4922943;29;20344;-47
2022/06/17 07:17:55;;;;;;;7.13;4.57;;;24.40;99.90;;;;;;4927081;29;20236;-47
2022/06/17 07:20:27;;;;;;;8.03;4.43;;;24.80;99.90;;;;;;4925488;29;20658;-48
2022/06/17 07:22:56;;;;;;;5.00;4.30;;;25.00;99.90;;;;;;4908057;29;20280;-47
2022/06/17 07:25:24;;;;;;;6.90;4.40;;;25.00;99.90;;;;;;4923033;29;20240;-46
2022/06/17 07:27:53;;;;;;;7.43;4.53;;;25.20;99.90;;;;;;4928254;29;20240;-46
2022/06/17 07:30:22;;;;;;;7.60;3.90;;;25.50;99.90;;;;;;4926570;29;20276;-46
2022/06/17 07:32:52;;;;;;;8.67;4.83;;;25.40;99.90;;;;;;4924447;29;20269;-46
2022/06/17 07:35:20;;;;;;;6.70;4.07;;;25.00;99.90;;;;;;4922632;29;20264;-47
2022/06/17 07:40:47;;;;;;;8.57;3.80;;;25.30;99.90;;;;;;4924993;29;20253;-46
2022/06/17 07:43:17;;;;;;;5.60;4.20;;;25.70;99.90;;;;;;4922652;29;20609;-46
2022/06/17 07:45:45;;;;;;;5.10;3.63;;;25.90;99.90;;;;;;4924289;29;20234;-46
2022/06/17 07:48:15;;;;;;;5.10;3.40;;;25.70;99.90;;;;;;4925766;29;20611;-47
2022/06/17 07:50:44;;;;;;;4.73;4.00;;;25.50;99.90;;;;;;4925255;29;20233;-47
2022/06/17 07:53:14;;;;;;;6.73;3.90;;;25.50;99.90;;;;;;4923707;29;20217;-47
2022/06/17 07:55:43;;;;;;;5.40;3.47;;;25.40;99.90;;;;;;4923718;29;20239;-47
2022/06/17 07:58:13;;;;;;;6.90;4.17;;;25.50;99.90;;;;;;4925044;29;20237;-46
2022/06/17 08:00:43;;;;;;;5.30;3.20;;;25.60;99.90;;;;;;4925320;29;20237;-47
2022/06/17 08:03:13;;;;;;;6.67;3.40;;;25.60;99.90;;;;;;4922880;29;20241;-47
2022/06/17 08:05:44;;;;;;;6.23;3.80;;;25.50;99.90;;;;;;4923267;29;20278;-47
2022/06/17 08:08:21;;;;;;;4.73;3.30;;;25.40;99.90;;;;;;4925476;29;20226;-46
2022/06/17 08:10:50;;;;;;;6.87;2.93;;;25.40;99.90;;;;;;4924821;29;20266;-46
2022/06/17 08:13:20;;;;;;;5.17;3.10;;;25.70;99.90;;;;;;4922852;29;20242;-47
2022/06/17 08:15:51;;;;;;;4.27;3.10;;;26.10;99.90;;;;;;4929289;29;20725;-47
2022/06/17 08:18:19;;;;;;;6.43;3.33;;;26.00;99.90;;;;;;4926014;29;20248;-49
2022/06/17 08:20:48;;;;;;;4.33;3.00;;;25.80;99.90;;;;;;4928890;29;20576;-46
2022/06/17 08:23:18;;;;;;;4.30;2.73;;;25.60;99.90;;;;;;4925238;29;20238;-46
2022/06/17 08:25:46;;;;;;;5.27;2.77;;;25.50;99.90;;;;;;4926699;29;20243;-47
2022/06/17 08:28:18;;;;;;;6.27;3.20;;;25.30;99.90;;;;;;4929921;29;21065;-47
2022/06/17 08:30:49;;;;;;;3.83;2.93;;;25.10;99.90;;;;;;4921911;29;20928;-48
2022/06/17 08:33:23;;;;;;;4.50;2.70;;;25.00;99.90;;;;;;4917659;29;20249;-47
2022/06/17 08:36:12;;;;;;;3.97;3.10;;;25.20;99.90;;;;;;4917223;29;20249;-46
2022/06/17 08:38:45;;;;;;;7.53;3.80;;;25.40;99.90;;;;;;4917665;29;20242;-46
2022/06/17 08:41:24;;;;;;;4.23;2.83;;;25.70;99.90;;;;;;4916730;29;20308;-47
2022/06/17 08:44:13;;;;;;;4.67;2.93;;;25.80;99.90;;;;;;4913997;29;20320;-47
2022/06/17 08:47:07;;;;;;;5.00;3.30;;;25.70;99.90;;;;;;4916672;29;20245;-48
2022/06/17 08:49:52;;;;;;;4.57;2.93;;;25.60;99.90;;;;;;4918638;28;20851;-47
2022/06/17 08:52:37;;;;;;;5.10;3.33;;;25.50;99.90;;;;;;4919187;29;20246;-46
2022/06/17 08:55:15;;;;;;;5.80;2.80;;;25.60;99.90;;;;;;4913862;29;20760;-49
2022/06/17 08:57:52;;;;;;;7.43;2.83;;;25.80;99.90;;;;;;4920589;29;20238;-47
2022/06/17 09:00:31;;;;;;;5.13;3.07;;;26.00;99.90;;;;;;4921576;29;20368;-46
2022/06/17 09:03:31;;;;;;;5.97;2.77;;;26.20;99.90;;;;;;4918958;29;20726;-46
2022/06/17 09:06:15;;;;;;;3.20;2.37;;;26.70;99.90;;;;;;4917100;29;20619;-47
2022/06/17 09:09:02;;;;;;;5.20;2.60;;;27.10;99.70;;;;;;4918858;29;20234;-47
2022/06/17 09:11:39;;;;;;;3.50;2.63;;;27.00;99.50;;;;;;4918002;29;20621;-49
2022/06/17 09:14:24;;;;;;;2.60;2.40;;;26.60;99.90;;;;;;4916703;29;20233;-48
2022/06/17 09:17:01;;;;;;;4.03;2.40;;;26.90;99.90;;;;;;4918482;29;20225;-47
2022/06/17 09:19:33;;;;;;;3.90;2.40;;;27.30;99.70;;;;;;4902001;29;20698;-47
2022/06/17 09:22:08;;;;;;;4.70;2.60;;;27.30;99.20;;;;;;4919250;29;20583;-46
2022/06/17 09:24:41;;;;;;;5.20;2.30;;;27.00;99.00;;;;;;4916550;29;20242;-49
2022/06/17 09:27:18;;;;;;;5.30;2.70;;;26.80;99.60;;;;;;4920243;29;20780;-46
2022/06/17 09:29:54;;;;;;;4.43;2.33;;;26.40;99.50;;;;;;4920589;29;20250;-47
2022/06/17 09:32:27;;;;;;;3.17;2.47;;;26.20;99.90;;;;;;4917715;29;20245;-47
2022/06/17 09:35:04;;;;;;;4.93;2.40;;;26.00;99.90;;;;;;4914306;29;20342;-47
2022/06/17 09:37:37;;;;;;;4.47;2.50;;;25.90;99.90;;;;;;4919075;29;20578;-49
2022/06/17 09:40:10;;;;;;;3.93;2.47;;;25.90;99.90;;;;;;4920130;29;20236;-48
2022/06/17 09:42:45;;;;;;;2.90;2.30;;;25.90;99.90;;;;;;4916908;29;20335;-46
2022/06/17 09:45:22;;;;;;;4.63;2.90;;;26.00;99.90;;;;;;4915696;29;20602;-48
2022/06/17 09:47:56;;;;;;;4.93;2.63;;;26.30;99.90;;;;;;4918435;29;20316;-47
2022/06/17 09:50:30;;;;;;;6.93;2.70;;;26.50;99.90;;;;;;4919487;29;20247;-47
2022/06/17 09:53:03;;;;;;;6.10;3.10;;;26.70;99.90;;;;;;4917613;29;20321;-46
2022/06/17 09:55:41;;;;;;;3.77;2.90;;;27.20;99.90;;;;;;4916452;29;20879;-47
2022/06/17 09:58:29;;;;;;;6.07;2.60;;;27.50;99.90;;;;;;4919545;29;20239;-46
2022/06/17 10:00:59;;;;;;;4.77;3.20;;;27.40;99.20;;;;;;4917039;29;20239;-47
2022/06/17 10:03:29;;;;;;;5.67;3.17;;;27.30;99.30;;;;;;4915227;28;20697;-47
2022/06/17 10:06:26;;;;;;;3.30;2.57;;;27.20;98.90;;;;;;4915802;29;20263;-49
2022/06/17 10:09:04;;;;;;;4.37;2.90;;;27.10;99.40;;;;;;4918919;29;20242;-47
2022/06/17 10:11:38;;;;;;;4.87;2.77;;;27.10;99.90;;;;;;4916498;29;21012;-47
2022/06/17 10:14:21;;;;;;;6.67;3.60;;;27.00;99.90;;;;;;4916292;29;20237;-47
2022/06/17 10:19:58;;;;;;;4.00;2.80;;;26.80;99.50;;;;;;4918369;29;20237;-48
2022/06/17 10:22:39;;;;;;;6.10;2.80;;;26.70;99.30;;;;;;4917413;29;20806;-49
2022/06/17 10:25:22;;;;;;;5.17;2.80;;;26.70;99.90;;;;;;4914879;29;20363;-47
2022/06/17 10:28:03;;;;;;;4.77;2.87;;;26.70;99.10;;;;;;4916281;29;20246;-46
2022/06/17 10:30:41;;;;;;;5.17;2.90;;;26.80;99.10;;;;;;4916882;29;21209;-46
2022/06/17 10:33:12;;;;;;;5.77;2.83;;;26.70;99.90;;;;;;4915562;28;20239;-47
2022/06/17 10:35:44;;;;;;;4.97;2.80;;;26.60;99.90;;;;;;4913468;29;20231;-48
2022/06/17 10:38:18;;;;;;;6.23;3.03;;;26.50;99.90;;;;;;4918772;29;20242;-46
2022/06/17 10:40:46;;;;;;;7.13;3.20;;;26.40;99.90;;;;;;4919633;29;20302;-47
2022/06/17 10:43:18;;;;;;;6.90;3.27;;;26.20;99.90;;;;;;4920629;29;20241;-47
2022/06/17 10:45:49;;;;;;;6.20;3.00;;;26.30;99.90;;;;;;4920841;29;20246;-48
2022/06/17 10:48:29;;;;;;;4.87;2.67;;;26.30;99.90;;;;;;4919566;29;20251;-46
2022/06/17 10:50:58;;;;;;;6.37;2.90;;;26.20;99.90;;;;;;4923831;29;20246;-47
2022/06/17 10:53:34;;;;;;;5.63;2.70;;;26.50;99.90;;;;;;4923074;29;20239;-45
2022/06/17 10:56:06;;;;;;;6.13;2.73;;;26.80;99.90;;;;;;4924883;29;20280;-47
2022/06/17 10:58:34;;;;;;;5.77;2.83;;;26.70;99.80;;;;;;4925474;29;20226;-45
2022/06/17 11:01:06;;;;;;;5.47;3.17;;;26.70;99.70;;;;;;4928580;29;20233;-47
2022/06/17 11:03:45;;;;;;;7.10;3.07;;;26.90;99.60;;;;;;4922987;29;20825;-47
2022/06/17 11:06:17;;;;;;;6.37;2.90;;;27.10;99.10;;;;;;4928439;29;20238;-46
2022/06/17 11:08:55;;;;;;;4.27;2.80;;;27.10;99.50;;;;;;4926580;29;20243;-46
2022/06/17 11:14:21;;;;;;;5.30;3.30;;;27.20;99.80;;;;;;4921906;29;20317;-46
2022/06/17 11:16:50;;;;;;;7.53;2.83;;;27.00;98.80;;;;;;4926815;29;20695;-46
2022/06/17 11:19:23;;;;;;;8.80;2.90;;;27.10;99.60;;;;;;4928644;29;20239;-47
2022/06/17 11:21:53;;;;;;;7.27;3.17;;;27.10;99.00;;;;;;4924615;29;20286;-47
2022/06/17 11:24:26;;;;;;;6.90;3.03;;;27.30;99.60;;;;;;4923920;29;20250;-47
2022/06/17 11:27:05;;;;;;;5.03;2.53;;;27.20;99.00;;;;;;4925955;29;20238;-46
2022/06/17 11:29:40;;;;;;;5.57;2.80;;;27.40;99.60;;;;;;4926213;29;20240;-46
2022/06/17 11:32:31;;;;;;;7.60;3.00;;;27.50;99.30;;;;;;4924449;29;20262;-46
2022/06/17 11:35:02;;;;;;;5.27;2.83;;;27.20;98.40;;;;;;4923230;29;20235;-47
2022/06/17 11:37:34;;;;;;;5.10;3.00;;;27.00;99.00;;;;;;4925357;29;20758;-45
2022/06/17 11:40:13;;;;;;;4.20;2.60;;;26.90;98.60;;;;;;4925951;29;20238;-46
2022/06/17 11:42:48;;;;;;;4.43;2.37;;;26.90;98.50;;;;;;4924699;29;20705;-46
2022/06/17 11:45:19;;;;;;;5.07;2.63;;;26.80;98.60;;;;;;4922332;29;20337;-47
2022/06/17 11:47:54;;;;;;;3.33;2.70;;;26.70;99.20;;;;;;4923681;29;20711;-46
2022/06/17 11:50:26;;;;;;;6.33;2.60;;;26.90;98.90;;;;;;4924571;29;20239;-46
2022/06/17 11:53:11;;;;;;;6.67;3.10;;;26.90;98.90;;;;;;4924969;29;20242;-46
2022/06/17 11:55:44;;;;;;;5.67;2.70;;;26.70;98.10;;;;;;4925631;29;20317;-46
2022/06/17 11:58:34;;;;;;;7.03;2.47;;;26.80;99.30;;;;;;4925635;29;20680;-48
2022/06/17 12:01:14;;;;;;;4.17;2.70;;;26.90;99.70;;;;;;4925386;29;20227;-45
2022/06/17 12:03:45;;;;;;;5.63;2.90;;;26.90;99.20;;;;;;4922480;29;20262;-45
2022/06/17 12:06:25;;;;;;;4.97;2.70;;;27.00;99.10;;;;;;4924280;29;20719;-45
2022/06/17 12:09:03;;;;;;;3.90;2.33;;;27.10;99.20;;;;;;4924958;29;20302;-45
2022/06/17 12:11:43;;;;;;;4.73;2.67;;;27.20;98.70;;;;;;4924261;29;20237;-45
2022/06/17 12:14:17;;;;;;;4.60;2.70;;;27.30;99.00;;;;;;4923067;29;20259;-46
2022/06/17 12:16:46;;;;;;;5.37;2.63;;;27.50;98.50;;;;;;4924205;29;20278;-45
2022/06/17 12:19:36;;;;;;;4.23;2.30;;;27.50;98.00;;;;;;4924698;29;20380;-45
2022/06/17 12:22:09;;;;;;;3.97;2.80;;;27.50;97.90;;;;;;4924017;29;20715;-45
2022/06/17 12:24:43;;;;;;;6.23;2.83;;;27.60;98.10;;;;;;4924887;29;20316;-45
2022/06/17 12:27:21;;;;;;;5.03;2.50;;;27.70;97.90;;;;;;4928413;29;20254;-44
2022/06/17 12:30:15;;;;;;;5.17;2.70;;;27.80;97.80;;;;;;4929291;29;20241;-45
2022/06/17 12:32:49;;;;;;;5.87;2.70;;;27.90;96.70;;;;;;4927269;29;20322;-47
2022/06/17 12:35:25;;;;;;;5.83;2.23;;;27.90;98.30;;;;;;4925303;29;20311;-45
2022/06/17 12:38:03;;;;;;;5.03;2.60;;;27.90;97.60;;;;;;4928679;29;20230;-44
2022/06/17 12:40:39;;;;;;;5.60;2.67;;;27.70;97.60;;;;;;4928530;29;20645;-46
2022/06/17 12:43:12;;;;;;;5.93;2.90;;;27.80;97.80;;;;;;4927219;29;20695;-45
2022/06/17 12:45:50;;;;;;;4.60;2.70;;;27.70;97.90;;;;;;4926754;29;20231;-44
2022/06/17 12:48:33;;;;;;;5.13;2.70;;;27.40;97.20;;;;;;4928333;29;20235;-45
2022/06/17 12:54:06;;;;;;;4.63;2.70;;;27.10;97.60;;;;;;4926328;29;20263;-45
2022/06/17 12:56:45;;;;;;;4.60;2.80;;;27.30;97.70;;;;;;4926430;29;20704;-47
2022/06/17 12:59:42;;;;;;;3.30;2.50;;;27.30;97.90;;;;;;4929996;29;20785;-46
2022/06/17 13:02:15;;;;;;;5.47;2.47;;;27.40;98.40;;;;;;4927534;29;20291;-44
2022/06/17 13:05:03;;;;;;;3.97;2.50;;;27.50;98.50;;;;;;4926031;29;20740;-45
2022/06/17 13:07:42;;;;;;;6.97;2.57;;;27.50;97.60;;;;;;4929420;29;20230;-44
2022/06/17 13:13:19;;;;;;;3.63;2.33;;;27.40;97.60;;;;;;4925980;29;20246;-46
2022/06/17 13:15:52;;;;;;;9.70;3.10;;;27.60;98.00;;;;;;4927372;29;20238;-45
2022/06/17 13:18:27;;;;;;;4.33;3.00;;;27.80;97.50;;;;;;4927209;29;20889;-45
2022/06/17 13:21:02;;;;;;;5.23;2.53;;;27.70;96.70;;;;;;4928113;29;20333;-46
2022/06/17 13:23:36;;;;;;;6.07;3.03;;;27.40;97.80;;;;;;4924536;29;20851;-44
2022/06/17 13:26:09;;;;;;;5.70;2.60;;;27.40;97.10;;;;;;4927774;29;20228;-44
2022/06/17 13:28:45;;;;;;;3.57;2.67;;;27.30;97.80;;;;;;4927496;29;20236;-44
2022/06/17 13:31:17;;;;;;;7.57;2.57;;;27.30;98.30;;;;;;4926719;29;20302;-46
2022/06/17 13:33:57;;;;;;;5.47;2.50;;;27.20;98.30;;;;;;4924725;29;20246;-44
2022/06/17 13:36:31;;;;;;;6.70;3.00;;;27.20;98.90;;;;;;4926002;28;20299;-46
2022/06/17 13:39:06;;;;;;;5.40;3.00;;;27.00;97.50;;;;;;4929199;29;20239;-44
2022/06/17 13:41:40;;;;;;;3.57;2.40;;;27.00;98.00;;;;;;4929550;29;20416;-44